Incline Creek, Nevada Weather observations

Data are for observation ending at time listed.
 Day   Time    Ave.   Ave.  Ave.  Vector   Max.   Stn.    Total    Solar   Ave.   Snow 
  of    of     Air    Rel.  Wind   Wind    Wind   Baro.  Precip.   Rad.    Soil   Depth
Year   Day     Temp.  Hum.  Speed  Dir.    Gust   Pres.                    Temp.       
2016   (PST)    F      %     mph   deg.    mph     mb.     in.     W/m2     F      in. 
---------------------------------------------------------------------------------------  
 237   21:50   47.7    46    2.4    24      3.6   999.0    0.00       0    999.0   83.9
 237   22:00   47.5    45    2.2    24      3.2   999.0    0.00       0    999.0   83.9
 237   22:10   47.3    46    1.8    24      2.9   999.0    0.00       0    999.0   83.9
 237   22:20   47.1    46    1.8    25      2.9   999.0    0.00       0    999.0   83.9
 237   22:30   46.9    46    2.2    21      3.9   999.0    0.00       0    999.0   83.9
 237   22:40   46.8    46    1.9    29      3.2   999.0    0.00       0    999.0   83.9
 237   22:50   46.5    46    2.5    22      4.5   999.0    0.00       0    999.0   83.9
 237   23:00   46.3    46    2.0    25      2.6   999.0    0.00       0    999.0   83.9
 237   23:10   46.0    46    2.3    23      3.9   999.0    0.00       0    999.0   83.9
 237   23:20   45.9    46    1.9    26      3.3   999.0    0.00       0    999.0   83.9
 237   23:30   45.6    46    1.9    26      2.7   999.0    0.00       0    999.0   83.9
 237   23:40   45.4    46    2.2    24      3.9   999.0    0.00       0    999.0   83.9
 237   23:50   45.2    46    1.8    25      2.9   999.0    0.00       0    999.0   83.9
 238    0:00   45.0    46    2.2    22      3.4   999.0    0.00       0    999.0   83.9
 238    0:10   44.9    46    2.2    19      3.1   999.0    0.00       0    999.0   83.9
 238    0:20   44.8    47    1.9    23      2.8   999.0    0.00       0    999.0   83.9
 238    0:30   44.7    48    2.3    22      3.7   999.0    0.00       0    999.0   83.9
 238    0:40   44.7    48    2.0    24      2.6   999.0    0.00       0    999.0   83.9
 238    0:50   44.5    49    1.8    27      2.9   999.0    0.00       0    999.0   83.9
 238    1:00   44.4    50    2.1    22      3.1   999.0    0.00       0    999.0   83.9
 238    1:10   44.4    50    1.9    26      2.5   999.0    0.00       0    999.0   83.9
 238    1:20   44.2    50    2.1    26      2.6   999.0    0.00       0    999.0   83.9
 238    1:30   44.0    50    1.8    28      2.4   999.0    0.00       0    999.0   83.9
 238    1:40   43.8    51    1.8    24      2.4   999.0    0.00       0    999.0   83.9
 238    1:50   43.7    51    1.6    24      2.1   999.0    0.00       0    999.0   83.9
 238    2:00   43.6    51    1.9    26      3.0   999.0    0.00       0    999.0   83.9
 238    2:10   43.5    51    1.9    33      2.5   999.0    0.00       0    999.0   83.9
 238    2:20   43.3    51    2.1    33      2.6   999.0    0.00       0    999.0   83.9
 238    2:30   43.1    52    1.9    29      2.7   999.0    0.00       0    999.0   83.9
 238    2:40   42.9    52    1.9    25      2.7   999.0    0.00       0    999.0   83.9
 238    2:50   42.6    53    1.7    22      2.3   999.0    0.00       0    999.0   83.9
 238    3:00   42.5    53    2.0    21      3.1   999.0    0.00       0    999.0   83.9
 238    3:10   42.6    53    2.2    27      2.7   999.0    0.00       0    999.0   83.9
 238    3:20   42.7    52    2.1    16      3.3   999.0    0.00       0    999.0   83.9
 238    3:30   42.7    52    2.0    20      2.9   999.0    0.00       0    999.0   83.9
 238    3:40   42.6    52    2.0    19      3.1   999.0    0.00       0    999.0   83.9
 238    3:50   42.5    52    2.0    19      3.1   999.0    0.00       0    999.0   83.9
 238    4:00   42.4    52    1.8    24      2.3   999.0    0.00       0    999.0   83.9
 238    4:10   42.2    52    2.3    24      3.6   999.0    0.00       0    999.0   83.9
 238    4:20   42.4    50    3.2    19      4.1   999.0    0.00       0    999.0   83.9
 238    4:30   42.2    51    2.3    23      3.7   999.0    0.00       0    999.0   83.9
 238    4:40   41.9    51    2.3    18      3.6   999.0    0.00       0    999.0   83.9
 238    4:50   41.9    51    2.2    22      3.3   999.0    0.00       0    999.0   83.9
 238    5:00   41.5    52    1.8    24      2.8   999.0    0.00       0    999.0   83.9
 238    5:10   41.5    52    2.3    18      3.4   999.0    0.00       0    999.0   83.9
 238    5:20   41.6    52    2.5    30      4.3   999.0    0.00       2    999.0   83.9
 238    5:30   41.4    52    2.7    24      4.2   999.0    0.00       4    999.0   83.9
 238    5:40   41.1    53    2.0    23      3.1   999.0    0.00       6    999.0   83.9
 238    5:50   41.0    54    2.1    19      3.5   999.0    0.00       8    999.0   83.9
 238    6:00   41.5    53    2.3    22      3.3   999.0    0.00      10    999.0   83.9
 238    6:10   41.7    54    2.6    22      3.8   999.0    0.00      11    999.0   83.9
 238    6:20   41.3    56    2.0    16      2.8   999.0    0.00      12    999.0   83.9
 238    6:30   41.7    56    2.8    20      4.1   999.0    0.00      13    999.0   83.9
 238    6:40   41.7    58    2.1    25      2.9   999.0    0.00      15    999.0   83.9
 238    6:50   41.5    60    2.1    18      3.6   999.0    0.00      34    999.0   83.9
 238    7:00   43.2    60    2.0    28      3.0   999.0    0.00     281    999.0   83.9
 238    7:10   45.5    57    1.9    22      3.1   999.0    0.00     318    999.0   83.9
 238    7:20   47.1    56    1.5    32      2.1   999.0    0.00     353    999.0   83.9
 238    7:30   49.2    52    1.9    21      2.8   999.0    0.00     388    999.0   83.9
 238    7:40   52.4    49    1.3    27      2.9   999.0    0.00     424    999.0   83.9
 238    7:50   54.6    48    1.4    28      2.9   999.0    0.00     458    999.0   83.9
 238    8:00   57.1    46    1.1    36      2.3   999.0    0.00     492    999.0   83.9
 238    8:10   59.7    46    1.2    46      2.9   999.0    0.00     525    999.0   83.9
 238    8:20   61.8    46    0.9    88      2.2   999.0    0.00     557    999.0   83.9
 238    8:30   62.3    47    2.5   134      5.1   999.0    0.00     588    999.0   83.9
 238    8:40   62.3    48    3.1   147      4.9   999.0    0.00     618    999.0   83.9
 238    8:50   63.3    45    3.4   152      5.2   999.0    0.00     647    999.0   83.9
 238    9:00   64.0    41    4.3   170      6.8   999.0    0.00     675    999.0   83.9
 238    9:10   65.1    34    4.3   163      8.1   999.0    0.00     702    999.0   83.9
 238    9:20   65.3    36    3.9   162      8.1   999.0    0.00     726    999.0   83.9
 238    9:30   65.8    34    4.5   161      9.2   999.0    0.00     752    999.0   83.9
 238    9:40   67.1    25    2.5   152      5.7   999.0    0.00     778    999.0   83.9
 238    9:50   68.1    18    3.5   133      7.6   999.0    0.00     801    999.0   83.9
 238   10:00   68.0    15    3.6   148      8.2   999.0    0.00     823    999.0    0.0
 238   10:10   68.7    15    3.4   124      8.5   999.0    0.00     842    999.0    0.0
 238   10:20   68.5    15    4.3   159      8.0   999.0    0.00     859    999.0   83.9
 238   10:30   68.7    16    3.9   145      9.2   999.0    0.00     874    999.0   83.9
 238   10:40   69.0    16    4.8   134      9.9   999.0    0.00     888    999.0   83.9
 238   10:50   69.4    15    3.3   128      7.0   999.0    0.00     901    999.0   83.9
 238   11:00   69.9    15    4.9   167     11.1   999.0    0.00     911    999.0    0.0
 238   11:10   69.7    15    4.4   164      9.0   999.0    0.00     922    999.0   83.9
 238   11:20   69.7    15    4.7   155      9.6   999.0    0.00     930    999.0   83.9
 238   11:30   70.2    14    4.9   157      9.9   999.0    0.00     935    999.0    0.0
 238   11:40   70.0    14    5.0   156     12.1   999.0    0.00     939    999.0   83.9
 238   11:50   70.2    14    3.9   169      9.7   999.0    0.00     942    999.0   83.9
 238   12:00   70.4    14    4.3   169     11.9   999.0    0.00     944    999.0   83.9
 238   12:10   70.7    14    4.6   169     12.2   999.0    0.00     943    999.0    0.0
 238   12:20   71.3    13    4.1   168     11.5   999.0    0.00     943    999.0   83.9
 238   12:30   71.3    13    5.2   166     11.3   999.0    0.00     940    999.0    0.0
 238   12:40   71.1    13    4.3   168     11.7   999.0    0.00     933    999.0   83.9
 238   12:50   71.8    13    4.4   155      8.5   999.0    0.00     926    999.0   83.9
 238   13:00   72.4    13    4.4   160      8.9   999.0    0.00     916    999.0    0.0
 238   13:10   71.6    13    5.3   169     11.5   999.0    0.00     906    999.0   83.9
 238   13:20   71.3    13    5.3   159     11.9   999.0    0.00     894    999.0   83.9
 238   13:30   71.7    13    4.9   161     10.3   999.0    0.00     879    999.0    0.0
 238   13:40   72.7    14    4.2   153     10.0   999.0    0.00     865    999.0    0.0
 238   13:50   73.2    14    4.4   161      8.9   999.0    0.00     847    999.0   83.9
 238   14:00   72.4    14    4.6   163     10.3   999.0    0.00     828    999.0   83.9
 238   14:10   73.0    14    3.9   171      9.5   999.0    0.00     811    999.0   83.9
 238   14:20   72.5    14    5.7   167     11.1   999.0    0.00     789    999.0    0.0
 238   14:30   72.5    14    5.8   168     12.8   999.0    0.00     766    999.0   83.9
 238   14:40   72.3    14    6.2   157     13.1   999.0    0.00     739    999.0   83.9
 238   14:50   72.3    15    6.1   149     11.8   999.0    0.00     712    999.0   83.9
 238   15:00   72.0    15    7.2   155     13.1   999.0    0.00     686    999.0   83.9
 238   15:10   72.1    16    6.1   163     13.1   999.0    0.00     658    999.0   83.9
 238   15:20   72.0    16    5.7   166     12.8   999.0    0.00     628    999.0   83.9
 238   15:30   72.3    17    5.9   155     10.4   999.0    0.00     597    999.0   83.9
 238   15:40   72.0    18    6.2   157     12.0   999.0    0.00     568    999.0   83.9
 238   15:50   71.7    18    6.0   157     10.0   999.0    0.00     534    999.0   83.9
 238   16:00   71.4    20    6.1   148     11.1   999.0    0.00     502    999.0   83.9
 238   16:10   72.1    21    4.0   161     10.4   999.0    0.00     470    999.0   83.9
 238   16:20   71.3    21    5.2   152     11.2   999.0    0.00     438    999.0   83.9
 238   16:30   70.8    23    5.8   162     12.8   999.0    0.00     405    999.0   83.9
 238   16:40   70.1    27    5.2   160     11.5   999.0    0.00     334    999.0   83.9
 238   16:50   69.8    30    4.6   138      9.3   999.0    0.00      50    999.0   83.9
 238   17:00   69.8    23    2.9   138      8.2   999.0    0.00      31    999.0   83.9
 238   17:10   69.4    24    2.8   133      6.5   999.0    0.00      28    999.0   83.9
 238   17:20   68.8    25    3.4   104      8.2   999.0    0.00      26    999.0   83.9
 238   17:30   68.4    24    3.5   107      7.5   999.0    0.00      24    999.0   83.9
 238   17:40   67.7    26    3.2    98      7.2   999.0    0.00      21    999.0   83.9
 238   17:50   67.9    24    3.1   106      7.2   999.0    0.00      19    999.0   83.9
 238   18:00   67.0    26    2.4    91      5.5   999.0    0.00      17    999.0   83.9
 238   18:10   66.7    30    2.3   106      6.0   999.0    0.00      15    999.0   83.9
 238   18:20   65.9    31    1.6   339      3.8   999.0    0.00      12    999.0   83.9
 238   18:30   63.8    31    2.7   302      3.9   999.0    0.00       8    999.0   83.9
 238   18:40   62.2    33    2.0   330      2.8   999.0    0.00       5    999.0   83.9
 238   18:50   60.5    37    2.1    23      3.2   999.0    0.00       2    999.0   83.9
 238   19:00   58.9    38    2.8    23      4.0   999.0    0.00       0    999.0   83.9
 238   19:10   57.6    40    1.7    34      2.7   999.0    0.00       0    999.0   83.9
 238   19:20   56.8    39    2.0    16      3.2   999.0    0.00       0    999.0   83.9
 238   19:30   56.2    39    2.1    28      3.2   999.0    0.00       0    999.0   83.9
 238   19:40   55.2    39    2.7    19      3.8   999.0    0.00       0    999.0   83.9
 238   19:50   54.7    40    2.6    24      3.9   999.0    0.00       0    999.0   83.9
 238   20:00   54.1    40    2.4    24      3.4   999.0    0.00       0    999.0   83.9
 238   20:10   53.6    40    3.3    11      4.5   999.0    0.00       0    999.0   83.9
 238   20:20   52.9    41    2.2    25      3.7   999.0    0.00       0    999.0   83.9
 238   20:30   52.3    42    2.4    29      3.7   999.0    0.00       0    999.0   83.9
 238   20:40   52.2    41    3.7    18      4.7   999.0    0.00       0    999.0   83.9
 238   20:50   52.0    41    2.6    10      4.0   999.0    0.00       0    999.0   83.9
 238   21:00   51.5    43    1.7    16      3.5   999.0    0.00       0    999.0   83.9
 238   21:10   51.9    41    1.8     8      4.3   999.0    0.00       0    999.0   83.9
 238   21:20   50.8    44    1.7    20      2.6   999.0    0.00       0    999.0   83.9
 238   21:30   50.4    45    2.2    16      3.6   999.0    0.00       0    999.0   83.9
 238   21:40   50.3    45    2.0    15      3.7   999.0    0.00       0    999.0   83.9

Return to Incline Creek graphs page.


Western Regional Climate Center,wrcc@dri.edu